sensor_id;sensor_type;location;lat;lon;timestamp;temperature;humidity
56478;DHT22;42382;53.210;5.772;2022-10-31T00:00:59;12.40;91.00
56478;DHT22;42382;53.210;5.772;2022-10-31T00:03:25;12.30;91.00
56478;DHT22;42382;53.210;5.772;2022-10-31T00:05:51;12.30;91.00
56478;DHT22;42382;53.210;5.772;2022-10-31T00:08:17;12.30;91.00
56478;DHT22;42382;53.210;5.772;2022-10-31T00:10:44;12.20;91.00
56478;DHT22;42382;53.210;5.772;2022-10-31T00:13:11;12.20;91.10
56478;DHT22;42382;53.210;5.772;2022-10-31T00:15:38;12.20;91.20
56478;DHT22;42382;53.210;5.772;2022-10-31T00:18:05;12.20;91.20
56478;DHT22;42382;53.210;5.772;2022-10-31T00:20:31;12.20;91.30
56478;DHT22;42382;53.210;5.772;2022-10-31T00:23:01;12.20;91.30
56478;DHT22;42382;53.210;5.772;2022-10-31T00:25:28;12.20;91.30
56478;DHT22;42382;53.210;5.772;2022-10-31T00:27:54;12.20;91.30
56478;DHT22;42382;53.210;5.772;2022-10-31T00:30:20;12.10;91.40
56478;DHT22;42382;53.210;5.772;2022-10-31T00:32:46;12.10;91.50
56478;DHT22;42382;53.210;5.772;2022-10-31T00:35:11;12.10;91.40
56478;DHT22;42382;53.210;5.772;2022-10-31T00:37:37;12.10;91.50
56478;DHT22;42382;53.210;5.772;2022-10-31T00:40:03;12.00;91.70
56478;DHT22;42382;53.210;5.772;2022-10-31T00:42:29;12.10;91.60
56478;DHT22;42382;53.210;5.772;2022-10-31T00:44:54;12.10;91.70
56478;DHT22;42382;53.210;5.772;2022-10-31T00:47:20;12.10;91.60
56478;DHT22;42382;53.210;5.772;2022-10-31T00:49:45;12.10;91.60
56478;DHT22;42382;53.210;5.772;2022-10-31T00:52:11;12.00;91.70
56478;DHT22;42382;53.210;5.772;2022-10-31T00:54:36;12.00;91.70
56478;DHT22;42382;53.210;5.772;2022-10-31T00:57:02;11.90;91.80
56478;DHT22;42382;53.210;5.772;2022-10-31T00:59:28;12.00;91.80
56478;DHT22;42382;53.210;5.772;2022-10-31T01:01:53;12.00;91.80
56478;DHT22;42382;53.210;5.772;2022-10-31T01:04:19;12.00;91.90
56478;DHT22;42382;53.210;5.772;2022-10-31T01:06:45;11.90;91.90
56478;DHT22;42382;53.210;5.772;2022-10-31T01:09:11;12.00;91.90
56478;DHT22;42382;53.210;5.772;2022-10-31T01:11:36;12.00;91.90
56478;DHT22;42382;53.210;5.772;2022-10-31T01:14:02;12.00;91.90
56478;DHT22;42382;53.210;5.772;2022-10-31T01:16:27;12.00;91.90
56478;DHT22;42382;53.210;5.772;2022-10-31T01:18:55;11.90;91.90
56478;DHT22;42382;53.210;5.772;2022-10-31T01:21:23;11.90;92.00
56478;DHT22;42382;53.210;5.772;2022-10-31T01:23:49;11.90;92.10
56478;DHT22;42382;53.210;5.772;2022-10-31T01:26:23;12.00;92.10
56478;DHT22;42382;53.210;5.772;2022-10-31T01:28:52;12.00;92.00
56478;DHT22;42382;53.210;5.772;2022-10-31T01:31:19;11.90;92.00
56478;DHT22;42382;53.210;5.772;2022-10-31T01:33:46;11.90;92.20
56478;DHT22;42382;53.210;5.772;2022-10-31T01:36:35;11.90;92.20
56478;DHT22;42382;53.210;5.772;2022-10-31T01:39:05;11.90;92.20
56478;DHT22;42382;53.210;5.772;2022-10-31T01:41:33;11.90;92.20
56478;DHT22;42382;53.210;5.772;2022-10-31T01:44:02;11.90;92.20
56478;DHT22;42382;53.210;5.772;2022-10-31T01:46:38;11.90;92.20
56478;DHT22;42382;53.210;5.772;2022-10-31T01:49:12;11.90;92.40
56478;DHT22;42382;53.210;5.772;2022-10-31T01:51:45;11.90;92.40
56478;DHT22;42382;53.210;5.772;2022-10-31T01:54:15;11.90;92.50
56478;DHT22;42382;53.210;5.772;2022-10-31T01:56:46;11.90;92.40
56478;DHT22;42382;53.210;5.772;2022-10-31T01:59:18;11.90;92.40
56478;DHT22;42382;53.210;5.772;2022-10-31T02:01:44;11.90;92.40
56478;DHT22;42382;53.210;5.772;2022-10-31T02:04:10;11.90;92.30
56478;DHT22;42382;53.210;5.772;2022-10-31T02:06:47;11.80;92.30
56478;DHT22;42382;53.210;5.772;2022-10-31T02:09:14;11.80;92.40
56478;DHT22;42382;53.210;5.772;2022-10-31T02:11:41;11.80;92.30
56478;DHT22;42382;53.210;5.772;2022-10-31T02:14:07;11.80;92.40
56478;DHT22;42382;53.210;5.772;2022-10-31T02:16:33;11.80;92.40
56478;DHT22;42382;53.210;5.772;2022-10-31T02:18:59;11.70;92.30
56478;DHT22;42382;53.210;5.772;2022-10-31T02:24:34;11.80;92.50
56478;DHT22;42382;53.210;5.772;2022-10-31T02:27:27;11.70;92.40
56478;DHT22;42382;53.210;5.772;2022-10-31T02:40:05;11.60;92.50
56478;DHT22;42382;53.210;5.772;2022-10-31T02:48:19;11.50;92.40
56478;DHT22;42382;53.210;5.772;2022-10-31T02:50:52;11.60;92.40
56478;DHT22;42382;53.210;5.772;2022-10-31T02:53:19;11.50;92.40
56478;DHT22;42382;53.210;5.772;2022-10-31T02:55:59;11.50;92.30
56478;DHT22;42382;53.210;5.772;2022-10-31T02:58:28;11.50;92.40
56478;DHT22;42382;53.210;5.772;2022-10-31T03:01:16;11.40;92.40
56478;DHT22;42382;53.210;5.772;2022-10-31T03:12:40;11.40;92.50
56478;DHT22;42382;53.210;5.772;2022-10-31T03:15:33;11.40;92.50
56478;DHT22;42382;53.210;5.772;2022-10-31T03:18:22;11.40;92.50
56478;DHT22;42382;53.210;5.772;2022-10-31T03:20:58;11.40;92.60
56478;DHT22;42382;53.210;5.772;2022-10-31T03:23:25;11.40;92.60
56478;DHT22;42382;53.210;5.772;2022-10-31T03:25:53;11.40;92.50
56478;DHT22;42382;53.210;5.772;2022-10-31T03:28:24;11.30;92.60
56478;DHT22;42382;53.210;5.772;2022-10-31T03:30:51;11.30;92.70
56478;DHT22;42382;53.210;5.772;2022-10-31T03:33:23;11.30;92.60
56478;DHT22;42382;53.210;5.772;2022-10-31T03:35:54;11.30;92.50
56478;DHT22;42382;53.210;5.772;2022-10-31T03:38:22;11.30;92.60
56478;DHT22;42382;53.210;5.772;2022-10-31T03:40:50;11.20;92.60
56478;DHT22;42382;53.210;5.772;2022-10-31T03:43:22;11.20;92.60
56478;DHT22;42382;53.210;5.772;2022-10-31T03:45:49;11.20;92.70
56478;DHT22;42382;53.210;5.772;2022-10-31T03:48:16;11.10;92.60
56478;DHT22;42382;53.210;5.772;2022-10-31T03:51:19;11.10;92.60
56478;DHT22;42382;53.210;5.772;2022-10-31T03:53:57;11.10;92.70
56478;DHT22;42382;53.210;5.772;2022-10-31T03:56:37;11.10;92.70
56478;DHT22;42382;53.210;5.772;2022-10-31T03:59:19;11.10;92.70
56478;DHT22;42382;53.210;5.772;2022-10-31T04:01:49;11.10;92.70
56478;DHT22;42382;53.210;5.772;2022-10-31T04:04:16;11.10;92.70
56478;DHT22;42382;53.210;5.772;2022-10-31T04:06:43;11.10;92.70
56478;DHT22;42382;53.210;5.772;2022-10-31T04:09:11;11.00;92.60
56478;DHT22;42382;53.210;5.772;2022-10-31T04:11:44;11.00;92.70
56478;DHT22;42382;53.210;5.772;2022-10-31T04:14:11;11.00;92.70
56478;DHT22;42382;53.210;5.772;2022-10-31T04:16:40;11.00;92.70
56478;DHT22;42382;53.210;5.772;2022-10-31T04:19:06;11.00;92.70
56478;DHT22;42382;53.210;5.772;2022-10-31T04:21:32;11.00;92.70
56478;DHT22;42382;53.210;5.772;2022-10-31T04:23:57;11.00;92.60
56478;DHT22;42382;53.210;5.772;2022-10-31T04:26:23;11.00;92.70
56478;DHT22;42382;53.210;5.772;2022-10-31T04:28:49;11.00;92.70
56478;DHT22;42382;53.210;5.772;2022-10-31T04:31:15;11.00;92.60
56478;DHT22;42382;53.210;5.772;2022-10-31T04:33:41;10.90;92.70
56478;DHT22;42382;53.210;5.772;2022-10-31T04:36:06;10.90;92.60
56478;DHT22;42382;53.210;5.772;2022-10-31T04:38:32;10.90;92.70
56478;DHT22;42382;53.210;5.772;2022-10-31T04:40:58;10.90;92.70
56478;DHT22;42382;53.210;5.772;2022-10-31T04:43:24;10.90;92.70
56478;DHT22;42382;53.210;5.772;2022-10-31T04:45:50;10.90;92.80
56478;DHT22;42382;53.210;5.772;2022-10-31T04:48:16;10.90;92.80
56478;DHT22;42382;53.210;5.772;2022-10-31T04:50:42;10.90;92.80
56478;DHT22;42382;53.210;5.772;2022-10-31T04:53:08;10.90;92.80
56478;DHT22;42382;53.210;5.772;2022-10-31T04:55:35;10.80;92.70
56478;DHT22;42382;53.210;5.772;2022-10-31T04:58:01;10.80;92.80
56478;DHT22;42382;53.210;5.772;2022-10-31T05:00:26;10.80;92.80
56478;DHT22;42382;53.210;5.772;2022-10-31T05:02:54;10.80;92.80
56478;DHT22;42382;53.210;5.772;2022-10-31T05:05:25;10.90;92.90
56478;DHT22;42382;53.210;5.772;2022-10-31T05:07:52;10.80;92.80
56478;DHT22;42382;53.210;5.772;2022-10-31T05:10:21;10.80;92.90
56478;DHT22;42382;53.210;5.772;2022-10-31T05:12:49;10.80;92.90
56478;DHT22;42382;53.210;5.772;2022-10-31T05:15:15;10.80;92.90
56478;DHT22;42382;53.210;5.772;2022-10-31T05:17:41;10.80;92.90
56478;DHT22;42382;53.210;5.772;2022-10-31T05:20:07;10.80;92.90
56478;DHT22;42382;53.210;5.772;2022-10-31T05:22:33;10.80;93.00
56478;DHT22;42382;53.210;5.772;2022-10-31T05:24:59;10.80;93.00
56478;DHT22;42382;53.210;5.772;2022-10-31T05:27:24;10.80;93.00
56478;DHT22;42382;53.210;5.772;2022-10-31T05:29:50;10.70;92.90
56478;DHT22;42382;53.210;5.772;2022-10-31T05:32:16;10.70;93.00
56478;DHT22;42382;53.210;5.772;2022-10-31T05:34:41;10.70;93.00
56478;DHT22;42382;53.210;5.772;2022-10-31T05:37:07;10.70;93.00
56478;DHT22;42382;53.210;5.772;2022-10-31T05:39:32;10.70;93.00
56478;DHT22;42382;53.210;5.772;2022-10-31T05:41:58;10.70;93.00
56478;DHT22;42382;53.210;5.772;2022-10-31T05:44:23;10.70;93.00
56478;DHT22;42382;53.210;5.772;2022-10-31T05:46:49;10.70;93.00
56478;DHT22;42382;53.210;5.772;2022-10-31T05:49:14;10.70;93.00
56478;DHT22;42382;53.210;5.772;2022-10-31T05:51:40;10.60;93.00
56478;DHT22;42382;53.210;5.772;2022-10-31T05:54:06;10.60;93.00
56478;DHT22;42382;53.210;5.772;2022-10-31T05:56:31;10.60;93.00
56478;DHT22;42382;53.210;5.772;2022-10-31T05:58:57;10.60;93.00
56478;DHT22;42382;53.210;5.772;2022-10-31T06:01:22;10.50;93.10
56478;DHT22;42382;53.210;5.772;2022-10-31T06:03:48;10.60;93.00
56478;DHT22;42382;53.210;5.772;2022-10-31T06:06:13;10.50;93.00
56478;DHT22;42382;53.210;5.772;2022-10-31T06:08:40;10.50;93.00
56478;DHT22;42382;53.210;5.772;2022-10-31T06:11:05;10.50;93.00
56478;DHT22;42382;53.210;5.772;2022-10-31T06:13:31;10.50;93.00
56478;DHT22;42382;53.210;5.772;2022-10-31T06:15:56;10.50;93.00
56478;DHT22;42382;53.210;5.772;2022-10-31T06:18:22;10.60;93.10
56478;DHT22;42382;53.210;5.772;2022-10-31T06:20:48;10.60;93.10
56478;DHT22;42382;53.210;5.772;2022-10-31T06:23:13;10.50;93.00
56478;DHT22;42382;53.210;5.772;2022-10-31T06:25:39;10.60;93.10
56478;DHT22;42382;53.210;5.772;2022-10-31T06:28:05;10.60;93.10
56478;DHT22;42382;53.210;5.772;2022-10-31T06:30:31;10.60;93.10
56478;DHT22;42382;53.210;5.772;2022-10-31T06:33:05;10.60;93.10
56478;DHT22;42382;53.210;5.772;2022-10-31T06:35:31;10.60;93.30
56478;DHT22;42382;53.210;5.772;2022-10-31T06:37:57;10.70;93.20
56478;DHT22;42382;53.210;5.772;2022-10-31T06:40:23;10.60;93.20
56478;DHT22;42382;53.210;5.772;2022-10-31T06:42:56;10.60;93.20
56478;DHT22;42382;53.210;5.772;2022-10-31T06:45:22;10.70;93.30
56478;DHT22;42382;53.210;5.772;2022-10-31T06:47:55;10.60;93.30
56478;DHT22;42382;53.210;5.772;2022-10-31T06:50:22;10.70;93.30
56478;DHT22;42382;53.210;5.772;2022-10-31T06:52:55;10.70;93.20
56478;DHT22;42382;53.210;5.772;2022-10-31T06:55:22;10.70;93.30
56478;DHT22;42382;53.210;5.772;2022-10-31T06:58:00;10.60;93.30
56478;DHT22;42382;53.210;5.772;2022-10-31T07:00:27;10.70;93.40
56478;DHT22;42382;53.210;5.772;2022-10-31T07:05:19;10.70;93.40
56478;DHT22;42382;53.210;5.772;2022-10-31T07:07:45;10.70;93.30
56478;DHT22;42382;53.210;5.772;2022-10-31T07:10:11;10.70;93.30
56478;DHT22;42382;53.210;5.772;2022-10-31T07:12:36;10.70;93.30
56478;DHT22;42382;53.210;5.772;2022-10-31T07:15:02;10.80;93.30
56478;DHT22;42382;53.210;5.772;2022-10-31T07:17:27;10.80;93.30
56478;DHT22;42382;53.210;5.772;2022-10-31T07:19:53;10.70;93.40
56478;DHT22;42382;53.210;5.772;2022-10-31T07:22:18;10.80;93.30
56478;DHT22;42382;53.210;5.772;2022-10-31T07:24:44;10.80;93.40
56478;DHT22;42382;53.210;5.772;2022-10-31T07:27:10;10.80;93.40
56478;DHT22;42382;53.210;5.772;2022-10-31T07:29:35;10.90;93.40
56478;DHT22;42382;53.210;5.772;2022-10-31T07:32:01;10.80;93.40
56478;DHT22;42382;53.210;5.772;2022-10-31T07:34:27;10.80;93.40
56478;DHT22;42382;53.210;5.772;2022-10-31T07:36:52;10.80;93.30
56478;DHT22;42382;53.210;5.772;2022-10-31T07:39:18;10.90;93.30
56478;DHT22;42382;53.210;5.772;2022-10-31T07:41:43;10.90;93.40
56478;DHT22;42382;53.210;5.772;2022-10-31T07:44:09;11.00;93.30
56478;DHT22;42382;53.210;5.772;2022-10-31T07:46:34;10.90;93.30
56478;DHT22;42382;53.210;5.772;2022-10-31T07:49:00;10.90;93.30
56478;DHT22;42382;53.210;5.772;2022-10-31T07:51:25;11.00;93.30
56478;DHT22;42382;53.210;5.772;2022-10-31T07:53:52;11.00;93.30
56478;DHT22;42382;53.210;5.772;2022-10-31T07:56:17;11.00;93.30
56478;DHT22;42382;53.210;5.772;2022-10-31T07:58:43;11.10;93.30
56478;DHT22;42382;53.210;5.772;2022-10-31T08:01:08;11.00;93.30
56478;DHT22;42382;53.210;5.772;2022-10-31T08:03:34;11.10;93.30
56478;DHT22;42382;53.210;5.772;2022-10-31T08:05:59;11.20;93.30
56478;DHT22;42382;53.210;5.772;2022-10-31T08:08:25;11.20;93.30
56478;DHT22;42382;53.210;5.772;2022-10-31T08:10:53;11.20;93.30
56478;DHT22;42382;53.210;5.772;2022-10-31T08:13:19;11.30;93.30
56478;DHT22;42382;53.210;5.772;2022-10-31T08:15:45;11.30;93.30
56478;DHT22;42382;53.210;5.772;2022-10-31T08:18:15;11.40;93.30
56478;DHT22;42382;53.210;5.772;2022-10-31T08:20:42;11.40;93.30
56478;DHT22;42382;53.210;5.772;2022-10-31T08:23:09;11.50;93.30
56478;DHT22;42382;53.210;5.772;2022-10-31T08:25:35;11.50;93.30
56478;DHT22;42382;53.210;5.772;2022-10-31T08:28:01;11.70;93.30
56478;DHT22;42382;53.210;5.772;2022-10-31T08:30:30;11.70;93.20
56478;DHT22;42382;53.210;5.772;2022-10-31T08:33:04;11.80;93.20
56478;DHT22;42382;53.210;5.772;2022-10-31T08:35:31;11.90;93.30
56478;DHT22;42382;53.210;5.772;2022-10-31T08:37:57;11.90;93.20
56478;DHT22;42382;53.210;5.772;2022-10-31T08:40:27;12.00;93.10
56478;DHT22;42382;53.210;5.772;2022-10-31T08:43:12;12.10;93.00
56478;DHT22;42382;53.210;5.772;2022-10-31T08:45:39;12.10;92.80
56478;DHT22;42382;53.210;5.772;2022-10-31T08:48:08;12.20;92.80
56478;DHT22;42382;53.210;5.772;2022-10-31T08:50:35;12.30;92.60
56478;DHT22;42382;53.210;5.772;2022-10-31T08:53:02;12.80;92.90
56478;DHT22;42382;53.210;5.772;2022-10-31T08:55:28;13.90;91.60
56478;DHT22;42382;53.210;5.772;2022-10-31T08:57:55;15.00;89.90
56478;DHT22;42382;53.210;5.772;2022-10-31T09:00:21;15.90;87.80
56478;DHT22;42382;53.210;5.772;2022-10-31T09:02:47;16.70;86.00
56478;DHT22;42382;53.210;5.772;2022-10-31T09:05:13;17.40;84.80
56478;DHT22;42382;53.210;5.772;2022-10-31T09:07:38;17.90;82.70
56478;DHT22;42382;53.210;5.772;2022-10-31T09:10:04;18.20;80.60
56478;DHT22;42382;53.210;5.772;2022-10-31T09:12:29;18.70;80.00
56478;DHT22;42382;53.210;5.772;2022-10-31T09:14:55;19.20;77.60
56478;DHT22;42382;53.210;5.772;2022-10-31T09:17:20;19.70;77.40
56478;DHT22;42382;53.210;5.772;2022-10-31T09:19:46;20.10;75.70
56478;DHT22;42382;53.210;5.772;2022-10-31T09:22:12;20.40;73.80
56478;DHT22;42382;53.210;5.772;2022-10-31T09:24:37;20.60;72.20
56478;DHT22;42382;53.210;5.772;2022-10-31T09:27:03;20.80;71.10
56478;DHT22;42382;53.210;5.772;2022-10-31T09:29:28;20.90;71.10
56478;DHT22;42382;53.210;5.772;2022-10-31T09:31:56;21.30;70.30
56478;DHT22;42382;53.210;5.772;2022-10-31T09:34:22;21.40;67.70
56478;DHT22;42382;53.210;5.772;2022-10-31T09:36:47;21.60;67.90
56478;DHT22;42382;53.210;5.772;2022-10-31T09:39:13;21.80;66.90
56478;DHT22;42382;53.210;5.772;2022-10-31T09:47:47;22.00;65.70
56478;DHT22;42382;53.210;5.772;2022-10-31T09:56:20;22.50;62.90
56478;DHT22;42382;53.210;5.772;2022-10-31T09:58:52;22.80;62.60
56478;DHT22;42382;53.210;5.772;2022-10-31T10:01:48;23.00;61.60
56478;DHT22;42382;53.210;5.772;2022-10-31T10:06:51;22.10;61.80
56478;DHT22;42382;53.210;5.772;2022-10-31T10:09:22;21.20;63.20
56478;DHT22;42382;53.210;5.772;2022-10-31T10:12:02;20.20;64.80
56478;DHT22;42382;53.210;5.772;2022-10-31T10:14:52;19.40;67.20
56478;DHT22;42382;53.210;5.772;2022-10-31T10:22:54;18.40;71.00
56478;DHT22;42382;53.210;5.772;2022-10-31T10:25:32;18.40;71.10
56478;DHT22;42382;53.210;5.772;2022-10-31T10:28:20;18.40;71.40
56478;DHT22;42382;53.210;5.772;2022-10-31T10:36:00;20.50;67.20
56478;DHT22;42382;53.210;5.772;2022-10-31T10:38:45;21.10;64.60
56478;DHT22;42382;53.210;5.772;2022-10-31T10:41:17;21.30;64.50
56478;DHT22;42382;53.210;5.772;2022-10-31T10:43:43;21.30;64.90
56478;DHT22;42382;53.210;5.772;2022-10-31T10:49:19;21.40;63.70
56478;DHT22;42382;53.210;5.772;2022-10-31T10:52:11;21.30;63.50
56478;DHT22;42382;53.210;5.772;2022-10-31T10:59:38;20.90;65.10
56478;DHT22;42382;53.210;5.772;2022-10-31T11:02:16;21.30;63.40
56478;DHT22;42382;53.210;5.772;2022-10-31T11:04:43;21.40;62.80
56478;DHT22;42382;53.210;5.772;2022-10-31T11:07:11;21.60;62.30
56478;DHT22;42382;53.210;5.772;2022-10-31T11:09:37;21.60;61.10
56478;DHT22;42382;53.210;5.772;2022-10-31T11:12:10;21.60;61.50
56478;DHT22;42382;53.210;5.772;2022-10-31T11:14:50;21.90;61.20
56478;DHT22;42382;53.210;5.772;2022-10-31T11:17:27;21.90;60.60
56478;DHT22;42382;53.210;5.772;2022-10-31T11:20:04;21.90;60.60
56478;DHT22;42382;53.210;5.772;2022-10-31T11:22:30;21.60;61.20
56478;DHT22;42382;53.210;5.772;2022-10-31T11:24:56;21.40;61.30
56478;DHT22;42382;53.210;5.772;2022-10-31T11:27:24;20.90;62.60
56478;DHT22;42382;53.210;5.772;2022-10-31T11:29:50;20.40;64.10
56478;DHT22;42382;53.210;5.772;2022-10-31T11:32:24;19.90;65.40
56478;DHT22;42382;53.210;5.772;2022-10-31T11:34:55;19.80;66.80
56478;DHT22;42382;53.210;5.772;2022-10-31T11:37:27;20.30;65.60
56478;DHT22;42382;53.210;5.772;2022-10-31T11:39:56;20.70;64.60
56478;DHT22;42382;53.210;5.772;2022-10-31T11:42:27;20.80;64.60
56478;DHT22;42382;53.210;5.772;2022-10-31T11:44:53;20.10;65.70
56478;DHT22;42382;53.210;5.772;2022-10-31T11:47:27;19.60;67.90
56478;DHT22;42382;53.210;5.772;2022-10-31T11:49:55;19.00;69.30
56478;DHT22;42382;53.210;5.772;2022-10-31T11:52:24;18.60;70.60
56478;DHT22;42382;53.210;5.772;2022-10-31T11:54:55;18.40;71.10
56478;DHT22;42382;53.210;5.772;2022-10-31T11:57:29;18.00;71.70
56478;DHT22;42382;53.210;5.772;2022-10-31T12:00:01;17.90;72.70
56478;DHT22;42382;53.210;5.772;2022-10-31T12:02:29;17.70;73.10
56478;DHT22;42382;53.210;5.772;2022-10-31T12:04:57;17.50;73.70
56478;DHT22;42382;53.210;5.772;2022-10-31T12:07:24;17.40;74.20
56478;DHT22;42382;53.210;5.772;2022-10-31T12:09:49;17.30;74.40
56478;DHT22;42382;53.210;5.772;2022-10-31T12:20:31;16.80;75.00
56478;DHT22;42382;53.210;5.772;2022-10-31T12:31:56;16.50;76.70
56478;DHT22;42382;53.210;5.772;2022-10-31T12:37:12;16.40;76.80
56478;DHT22;42382;53.210;5.772;2022-10-31T12:56:29;16.20;78.10
56478;DHT22;42382;53.210;5.772;2022-10-31T12:59:17;16.30;78.50
56478;DHT22;42382;53.210;5.772;2022-10-31T13:01:52;16.30;78.70
56478;DHT22;42382;53.210;5.772;2022-10-31T13:04:43;16.40;78.50
56478;DHT22;42382;53.210;5.772;2022-10-31T13:07:38;16.40;78.60
56478;DHT22;42382;53.210;5.772;2022-10-31T13:10:15;16.50;77.90
56478;DHT22;42382;53.210;5.772;2022-10-31T13:12:42;16.50;78.00
56478;DHT22;42382;53.210;5.772;2022-10-31T13:15:48;16.50;78.10
56478;DHT22;42382;53.210;5.772;2022-10-31T13:18:30;16.50;77.40
56478;DHT22;42382;53.210;5.772;2022-10-31T13:20:59;16.60;77.60
56478;DHT22;42382;53.210;5.772;2022-10-31T13:23:30;16.70;76.60
56478;DHT22;42382;53.210;5.772;2022-10-31T13:25:58;16.70;77.00
56478;DHT22;42382;53.210;5.772;2022-10-31T13:28:38;16.80;76.90
56478;DHT22;42382;53.210;5.772;2022-10-31T13:31:06;16.80;76.20
56478;DHT22;42382;53.210;5.772;2022-10-31T13:33:51;16.90;76.00
56478;DHT22;42382;53.210;5.772;2022-10-31T13:36:24;16.80;75.80
56478;DHT22;42382;53.210;5.772;2022-10-31T13:39:33;16.90;76.40
56478;DHT22;42382;53.210;5.772;2022-10-31T13:44:36;16.80;76.60
56478;DHT22;42382;53.210;5.772;2022-10-31T13:49:46;16.80;76.10
56478;DHT22;42382;53.210;5.772;2022-10-31T13:52:12;16.80;76.50
56478;DHT22;42382;53.210;5.772;2022-10-31T13:54:46;16.80;76.40
56478;DHT22;42382;53.210;5.772;2022-10-31T13:57:38;16.80;76.30
56478;DHT22;42382;53.210;5.772;2022-10-31T14:02:36;16.60;76.30
56478;DHT22;42382;53.210;5.772;2022-10-31T14:05:33;16.50;76.60
56478;DHT22;42382;53.210;5.772;2022-10-31T14:08:02;16.50;76.40
56478;DHT22;42382;53.210;5.772;2022-10-31T14:10:35;16.40;77.00
56478;DHT22;42382;53.210;5.772;2022-10-31T14:13:22;16.50;77.40
56478;DHT22;42382;53.210;5.772;2022-10-31T14:15:56;16.60;77.10
56478;DHT22;42382;53.210;5.772;2022-10-31T14:18:25;16.70;77.30
56478;DHT22;42382;53.210;5.772;2022-10-31T14:20:54;16.70;77.30
56478;DHT22;42382;53.210;5.772;2022-10-31T14:23:37;16.70;77.00
56478;DHT22;42382;53.210;5.772;2022-10-31T14:28:51;16.60;76.90
56478;DHT22;42382;53.210;5.772;2022-10-31T14:31:35;16.50;77.10
56478;DHT22;42382;53.210;5.772;2022-10-31T14:34:32;16.50;76.80
56478;DHT22;42382;53.210;5.772;2022-10-31T14:40:07;16.30;77.40
56478;DHT22;42382;53.210;5.772;2022-10-31T14:42:56;16.30;77.70
56478;DHT22;42382;53.210;5.772;2022-10-31T14:50:50;16.10;78.50
56478;DHT22;42382;53.210;5.772;2022-10-31T14:53:21;16.10;78.70
56478;DHT22;42382;53.210;5.772;2022-10-31T14:55:49;16.10;78.90
56478;DHT22;42382;53.210;5.772;2022-10-31T14:58:28;16.10;78.80
56478;DHT22;42382;53.210;5.772;2022-10-31T15:00:57;16.10;79.00
56478;DHT22;42382;53.210;5.772;2022-10-31T15:03:25;16.10;79.10
56478;DHT22;42382;53.210;5.772;2022-10-31T15:05:55;16.00;79.20
56478;DHT22;42382;53.210;5.772;2022-10-31T15:08:46;16.00;79.20
56478;DHT22;42382;53.210;5.772;2022-10-31T15:11:26;16.00;79.20
56478;DHT22;42382;53.210;5.772;2022-10-31T15:13:57;15.90;79.00
56478;DHT22;42382;53.210;5.772;2022-10-31T15:16:31;15.90;79.20
56478;DHT22;42382;53.210;5.772;2022-10-31T15:19:06;15.80;79.20
56478;DHT22;42382;53.210;5.772;2022-10-31T15:21:33;15.90;79.20
56478;DHT22;42382;53.210;5.772;2022-10-31T15:24:00;15.80;79.40
56478;DHT22;42382;53.210;5.772;2022-10-31T15:26:33;15.80;79.60
56478;DHT22;42382;53.210;5.772;2022-10-31T15:29:23;15.80;79.80
56478;DHT22;42382;53.210;5.772;2022-10-31T15:31:54;15.80;79.80
56478;DHT22;42382;53.210;5.772;2022-10-31T15:34:39;15.70;80.20
56478;DHT22;42382;53.210;5.772;2022-10-31T15:37:16;15.70;80.00
56478;DHT22;42382;53.210;5.772;2022-10-31T15:39:42;15.70;80.40
56478;DHT22;42382;53.210;5.772;2022-10-31T15:42:30;15.60;80.50
56478;DHT22;42382;53.210;5.772;2022-10-31T15:47:30;15.60;80.90
56478;DHT22;42382;53.210;5.772;2022-10-31T15:49:57;15.50;81.00
56478;DHT22;42382;53.210;5.772;2022-10-31T15:52:34;15.50;81.00
56478;DHT22;42382;53.210;5.772;2022-10-31T15:55:03;15.40;80.90
56478;DHT22;42382;53.210;5.772;2022-10-31T15:57:30;15.40;81.10
56478;DHT22;42382;53.210;5.772;2022-10-31T15:59:56;15.40;81.20
56478;DHT22;42382;53.210;5.772;2022-10-31T16:02:24;15.30;81.30
56478;DHT22;42382;53.210;5.772;2022-10-31T16:04:54;15.30;81.50
56478;DHT22;42382;53.210;5.772;2022-10-31T16:07:21;15.30;81.50
56478;DHT22;42382;53.210;5.772;2022-10-31T16:09:50;15.30;81.50
56478;DHT22;42382;53.210;5.772;2022-10-31T16:12:16;15.20;81.60
56478;DHT22;42382;53.210;5.772;2022-10-31T16:14:42;15.10;81.60
56478;DHT22;42382;53.210;5.772;2022-10-31T16:17:15;15.20;81.80
56478;DHT22;42382;53.210;5.772;2022-10-31T16:19:50;15.10;81.90
56478;DHT22;42382;53.210;5.772;2022-10-31T16:22:21;15.10;81.90
56478;DHT22;42382;53.210;5.772;2022-10-31T16:27:22;15.00;82.10
56478;DHT22;42382;53.210;5.772;2022-10-31T16:29:55;15.00;82.20
56478;DHT22;42382;53.210;5.772;2022-10-31T16:35:21;15.00;82.30
56478;DHT22;42382;53.210;5.772;2022-10-31T16:37:48;15.00;82.40
56478;DHT22;42382;53.210;5.772;2022-10-31T16:40:14;15.00;82.40
56478;DHT22;42382;53.210;5.772;2022-10-31T16:42:41;14.90;82.40
56478;DHT22;42382;53.210;5.772;2022-10-31T16:45:12;15.00;82.60
56478;DHT22;42382;53.210;5.772;2022-10-31T16:47:38;14.90;82.70
56478;DHT22;42382;53.210;5.772;2022-10-31T16:50:10;14.90;82.70
56478;DHT22;42382;53.210;5.772;2022-10-31T16:52:37;14.90;82.90
56478;DHT22;42382;53.210;5.772;2022-10-31T16:55:02;14.90;82.90
56478;DHT22;42382;53.210;5.772;2022-10-31T16:57:31;14.90;82.90
56478;DHT22;42382;53.210;5.772;2022-10-31T16:59:57;14.90;83.20
56478;DHT22;42382;53.210;5.772;2022-10-31T17:02:23;14.90;83.20
56478;DHT22;42382;53.210;5.772;2022-10-31T17:04:49;14.90;83.30
56478;DHT22;42382;53.210;5.772;2022-10-31T17:07:14;14.80;83.40
56478;DHT22;42382;53.210;5.772;2022-10-31T17:09:40;14.80;83.40
56478;DHT22;42382;53.210;5.772;2022-10-31T17:12:09;14.80;83.50
56478;DHT22;42382;53.210;5.772;2022-10-31T17:14:38;14.80;83.60
56478;DHT22;42382;53.210;5.772;2022-10-31T17:17:04;14.80;83.60
56478;DHT22;42382;53.210;5.772;2022-10-31T17:19:29;14.80;83.60
56478;DHT22;42382;53.210;5.772;2022-10-31T17:21:55;14.70;83.70
56478;DHT22;42382;53.210;5.772;2022-10-31T17:24:21;14.70;83.70
56478;DHT22;42382;53.210;5.772;2022-10-31T17:26:46;14.70;83.70
56478;DHT22;42382;53.210;5.772;2022-10-31T17:29:12;14.70;83.70
56478;DHT22;42382;53.210;5.772;2022-10-31T17:31:38;14.70;83.80
56478;DHT22;42382;53.210;5.772;2022-10-31T17:34:04;14.70;83.80
56478;DHT22;42382;53.210;5.772;2022-10-31T17:36:31;14.70;83.80
56478;DHT22;42382;53.210;5.772;2022-10-31T17:38:57;14.70;83.90
56478;DHT22;42382;53.210;5.772;2022-10-31T17:41:23;14.70;83.90
56478;DHT22;42382;53.210;5.772;2022-10-31T17:43:53;14.70;84.00
56478;DHT22;42382;53.210;5.772;2022-10-31T17:46:18;14.70;84.00
56478;DHT22;42382;53.210;5.772;2022-10-31T17:48:44;14.60;84.00
56478;DHT22;42382;53.210;5.772;2022-10-31T17:51:09;14.60;84.00
56478;DHT22;42382;53.210;5.772;2022-10-31T17:53:35;14.70;84.10